createdAt,value
2022-11-09T00:02:14.752Z,31.33
2022-11-09T00:07:22.696Z,36.87
2022-11-09T00:12:30.752Z,38.23
2022-11-09T00:17:38.649Z,34.83
2022-11-09T00:22:48.988Z,38.40
2022-11-09T00:27:56.877Z,39.37
2022-11-09T00:33:05.372Z,39.03
2022-11-09T00:38:13.294Z,40.47
2022-11-09T00:43:21.652Z,39.23
2022-11-09T00:48:30.502Z,41.37
2022-11-09T00:53:39.192Z,42.37
2022-11-09T00:58:47.084Z,42.43
2022-11-09T01:03:55.022Z,42.17
2022-11-09T01:09:03.032Z,38.20
2022-11-09T01:14:11.806Z,42.27
2022-11-09T01:19:20.254Z,42.73
2022-11-09T01:24:28.091Z,43.03
2022-11-09T01:29:36.000Z,44.20
2022-11-09T01:34:43.853Z,43.07
2022-11-09T01:39:51.930Z,41.87
2022-11-09T01:45:03.345Z,44.07
2022-11-09T01:50:11.134Z,42.03
2022-11-09T01:55:20.308Z,40.67
2022-11-09T02:00:29.039Z,43.77
2022-11-09T02:05:38.022Z,42.83
2022-11-09T02:10:58.443Z,41.63
2022-11-09T02:16:24.844Z,42.73
2022-11-09T02:21:32.789Z,42.67
2022-11-09T02:26:42.953Z,44.57
2022-11-09T02:31:53.932Z,49.67
2022-11-09T02:37:02.593Z,41.83
2022-11-09T02:42:19.892Z,43.67
2022-11-09T02:47:23.851Z,45.10
2022-11-09T02:52:32.093Z,40.77
2022-11-09T02:57:39.972Z,45.40
2022-11-09T03:02:48.829Z,44.47
2022-11-09T03:07:57.215Z,46.07
2022-11-09T03:13:05.050Z,46.13
2022-11-09T03:18:12.921Z,50.23
2022-11-09T03:23:21.554Z,47.70
2022-11-09T03:28:29.586Z,45.73
2022-11-09T03:33:37.481Z,48.93
2022-11-09T03:38:45.445Z,45.97
2022-11-09T03:43:53.360Z,49.57
2022-11-09T03:49:01.750Z,48.50
2022-11-09T03:54:10.191Z,44.97
2022-11-09T03:59:18.260Z,46.97
2022-11-09T04:04:26.856Z,43.40
2022-11-09T04:09:34.769Z,46.13
2022-11-09T04:14:42.597Z,51.50
2022-11-09T04:19:50.418Z,47.40
2022-11-09T04:24:59.432Z,48.93
2022-11-09T04:30:07.997Z,48.90
2022-11-09T04:35:15.997Z,48.53
2022-11-09T04:40:24.866Z,47.80
2022-11-09T04:45:34.438Z,49.60
2022-11-09T04:50:42.407Z,42.10
2022-11-09T04:55:50.858Z,51.90
2022-11-09T05:01:01.892Z,47.30
2022-11-09T05:06:11.998Z,44.37
2022-11-09T05:11:20.220Z,49.87
2022-11-09T05:16:28.891Z,56.83
2022-11-09T05:21:36.772Z,50.70
2022-11-09T05:26:44.945Z,49.17
2022-11-09T05:31:53.452Z,45.20
2022-11-09T05:37:03.661Z,48.23
2022-11-09T05:42:10.858Z,54.23
2022-11-09T05:47:22.386Z,52.57
2022-11-09T05:52:31.385Z,50.00
2022-11-09T05:57:39.459Z,51.47
2022-11-09T06:02:49.750Z,52.40
2022-11-09T06:07:57.825Z,53.40
2022-11-09T06:13:06.008Z,51.17
2022-11-09T06:18:14.337Z,53.83
2022-11-09T06:23:27.394Z,48.37
2022-11-09T06:28:36.973Z,52.47
2022-11-09T06:33:45.543Z,54.80
2022-11-09T06:38:54.095Z,52.90
2022-11-09T06:44:01.917Z,53.73
2022-11-09T06:49:09.956Z,58.93
2022-11-09T06:54:17.768Z,51.83
2022-11-09T06:59:25.903Z,48.83
2022-11-09T07:04:33.812Z,62.50
2022-11-09T07:09:42.684Z,61.03
2022-11-09T07:14:50.502Z,58.20
2022-11-09T07:19:58.790Z,54.90
2022-11-09T07:25:08.540Z,48.37
2022-11-09T07:30:16.796Z,55.93
2022-11-09T07:35:24.729Z,55.90
2022-11-09T07:40:33.020Z,50.07
2022-11-09T07:45:41.145Z,56.40
2022-11-09T07:50:49.341Z,56.80
2022-11-09T07:55:59.997Z,60.20
2022-11-09T08:01:10.404Z,58.20
2022-11-09T08:06:19.002Z,55.07
2022-11-09T08:11:28.228Z,55.60
2022-11-09T08:16:37.911Z,49.77
2022-11-09T08:21:45.725Z,48.87
2022-11-09T08:26:54.461Z,58.27
2022-11-09T08:32:03.541Z,49.23
2022-11-09T08:37:11.417Z,47.00
2022-11-09T08:42:19.276Z,43.33
2022-11-09T08:47:27.063Z,47.97
2022-11-09T08:52:35.462Z,39.77
2022-11-09T08:57:43.292Z,44.53
2022-11-09T09:02:52.273Z,40.37
2022-11-09T09:08:01.616Z,37.80
2022-11-09T09:13:10.567Z,41.10
2022-11-09T09:18:19.252Z,39.73
2022-11-09T09:23:27.400Z,40.00
2022-11-09T09:28:35.440Z,40.03
2022-11-09T09:33:44.161Z,37.87
2022-11-09T09:38:53.768Z,35.47
2022-11-09T09:44:03.466Z,35.90
2022-11-09T09:49:14.470Z,32.37
2022-11-09T09:54:25.375Z,29.07
2022-11-09T09:59:36.808Z,31.67
2022-11-09T10:04:44.751Z,30.67
2022-11-09T10:09:56.138Z,29.53
2022-11-09T10:20:20.109Z,32.13
2022-11-09T10:26:02.927Z,31.80
2022-11-09T10:30:38.447Z,30.47
2022-11-09T10:41:02.536Z,30.70
2022-11-09T10:46:10.528Z,35.77
2022-11-09T10:51:21.516Z,30.70
2022-11-09T10:56:37.247Z,30.40
2022-11-09T11:01:41.334Z,32.50
2022-11-09T11:06:49.238Z,33.47
2022-11-09T11:12:00.599Z,30.47
2022-11-09T11:17:11.902Z,34.10
2022-11-09T11:22:23.666Z,31.40
2022-11-09T11:27:34.884Z,31.87
2022-11-09T11:32:47.301Z,30.17
2022-11-09T11:37:55.634Z,29.47
2022-11-09T11:43:06.639Z,27.77
2022-11-09T11:48:17.824Z,30.57
2022-11-09T11:53:30.768Z,29.30
2022-11-09T11:58:43.123Z,36.60
2022-11-09T12:03:54.964Z,25.67
2022-11-09T12:09:06.817Z,46.77
2022-11-09T12:14:17.949Z,27.47
2022-11-09T12:24:43.052Z,37.63
2022-11-09T12:35:06.351Z,36.63
2022-11-09T12:40:17.345Z,31.63
2022-11-09T12:45:28.965Z,31.23
2022-11-09T12:50:36.818Z,30.90
2022-11-09T12:55:48.845Z,29.57
2022-11-09T13:00:58.598Z,27.93
2022-11-09T13:06:09.946Z,25.37
2022-11-09T13:11:21.001Z,29.43
2022-11-09T13:16:33.453Z,29.47
2022-11-09T13:21:42.589Z,30.27
2022-11-09T13:26:54.333Z,26.17
2022-11-09T13:32:05.866Z,27.30
2022-11-09T13:37:17.150Z,30.77
2022-11-09T13:42:28.535Z,33.73
2022-11-09T13:47:37.025Z,40.17
2022-11-09T13:52:48.955Z,31.40
2022-11-09T13:57:58.806Z,30.03
2022-11-09T14:03:10.272Z,30.80
2022-11-09T14:08:21.902Z,28.70
2022-11-09T14:13:33.553Z,31.17
2022-11-09T14:18:44.615Z,35.77
2022-11-09T14:23:54.442Z,30.63
2022-11-09T14:29:05.437Z,34.03
2022-11-09T14:34:16.969Z,37.17
2022-11-09T14:44:41.701Z,33.83
2022-11-09T14:49:50.171Z,38.67
2022-11-09T14:54:58.082Z,36.63
2022-11-09T15:00:07.231Z,43.43
2022-11-09T15:05:18.192Z,39.17
2022-11-09T15:10:28.298Z,38.10
2022-11-09T15:15:39.494Z,36.07
2022-11-09T15:20:48.116Z,46.00
2022-11-09T15:25:57.454Z,49.97
2022-11-09T15:31:08.854Z,43.30
2022-11-09T15:36:19.895Z,37.80
2022-11-09T15:41:28.096Z,40.03
2022-11-09T15:46:38.928Z,44.97
2022-11-09T15:51:47.161Z,52.20
2022-11-09T15:56:55.592Z,47.23
2022-11-09T16:02:03.622Z,46.30
2022-11-09T16:07:14.063Z,44.33
2022-11-09T16:12:22.567Z,39.97
2022-11-09T16:17:31.215Z,44.37
2022-11-09T16:22:41.490Z,42.63
2022-11-09T16:27:51.252Z,42.87
2022-11-09T16:32:59.582Z,46.10
2022-11-09T16:38:08.218Z,45.90
2022-11-09T16:43:16.566Z,39.87
2022-11-09T16:48:25.701Z,42.73
2022-11-09T16:53:35.444Z,50.87
2022-11-09T16:58:45.237Z,46.27
2022-11-09T17:03:53.334Z,47.23
2022-11-09T17:09:01.958Z,46.80
2022-11-09T17:14:10.011Z,48.43
2022-11-09T17:19:19.578Z,56.60
2022-11-09T17:24:28.700Z,45.90
2022-11-09T17:29:38.120Z,49.93
2022-11-09T17:34:46.015Z,44.60
2022-11-09T17:39:55.123Z,58.23
2022-11-09T17:45:04.511Z,54.43
2022-11-09T17:50:13.499Z,57.77
2022-11-09T17:55:21.797Z,54.30
2022-11-09T18:00:34.702Z,59.63
2022-11-09T18:05:46.912Z,53.03
2022-11-09T18:10:56.311Z,57.13
2022-11-09T18:16:16.128Z,66.57
2022-11-09T18:21:28.457Z,72.63
2022-11-09T18:26:36.517Z,78.93
2022-11-09T18:31:46.198Z,75.50
2022-11-09T18:36:54.199Z,80.23
2022-11-09T18:42:03.427Z,83.17
2022-11-09T18:47:14.379Z,76.90
2022-11-09T18:52:22.371Z,83.70
2022-11-09T18:57:30.335Z,71.97
2022-11-09T19:02:40.859Z,69.43
2022-11-09T19:07:48.967Z,65.50
2022-11-09T19:12:57.026Z,66.93
2022-11-09T19:18:06.473Z,69.40
2022-11-09T19:23:14.406Z,75.80
2022-11-09T19:28:22.845Z,73.03
2022-11-09T19:33:31.593Z,76.13
2022-11-09T19:38:39.937Z,71.83
2022-11-09T19:43:50.005Z,78.33
2022-11-09T19:49:00.133Z,74.77
2022-11-09T19:54:08.299Z,81.90
2022-11-09T19:59:17.613Z,83.77
2022-11-09T20:04:26.075Z,69.87
2022-11-09T20:09:34.363Z,68.83
2022-11-09T20:14:42.466Z,70.77
2022-11-09T20:19:51.109Z,78.63
2022-11-09T20:25:00.672Z,78.70
2022-11-09T20:30:08.930Z,80.53
2022-11-09T20:35:17.637Z,84.73
2022-11-09T20:40:26.140Z,80.83
2022-11-09T20:45:36.348Z,94.47
2022-11-09T20:50:44.476Z,82.70
2022-11-09T20:55:53.769Z,85.40
2022-11-09T21:01:06.377Z,73.20
2022-11-09T21:06:14.857Z,73.40
2022-11-09T21:11:24.078Z,73.27
2022-11-09T21:16:32.105Z,71.47
2022-11-09T21:21:40.161Z,65.40
2022-11-09T21:26:49.896Z,57.67
2022-11-09T21:31:57.975Z,56.60
2022-11-09T21:37:06.157Z,61.43
2022-11-09T21:42:14.053Z,63.73
2022-11-09T21:47:24.092Z,66.47
2022-11-09T21:52:32.198Z,65.17
2022-11-09T21:57:41.007Z,61.70
2022-11-09T22:02:48.885Z,60.73
2022-11-09T22:07:57.143Z,61.23
2022-11-09T22:13:07.898Z,56.57
2022-11-09T22:18:17.414Z,58.90
2022-11-09T22:23:26.331Z,73.40
2022-11-09T22:28:34.742Z,65.87
2022-11-09T22:33:42.678Z,59.23
2022-11-09T22:38:51.285Z,56.43
2022-11-09T22:44:00.263Z,68.97
2022-11-09T22:49:08.732Z,61.50
2022-11-09T22:54:16.551Z,60.30
2022-11-09T22:59:24.388Z,57.87
2022-11-09T23:04:32.570Z,56.87
2022-11-09T23:09:40.779Z,62.47
2022-11-09T23:14:50.268Z,62.30
2022-11-09T23:19:58.636Z,61.40
2022-11-09T23:25:08.802Z,53.47
2022-11-09T23:30:16.777Z,51.03
2022-11-09T23:35:24.628Z,61.27
2022-11-09T23:40:33.717Z,52.73
2022-11-09T23:45:42.099Z,52.20
2022-11-09T23:50:50.156Z,54.33
2022-11-09T23:56:18.825Z,51.17
